sensor_id;sensor_type;location;lat;lon;timestamp;pressure;altitude;pressure_sealevel;temperature;humidity
40994;BME280;26722;43.212;27.932;2023-04-08T00:00:24;55164.66;;;-146.72;53.82
40994;BME280;26722;43.212;27.932;2023-04-08T00:02:50;55179.44;;;-146.72;53.29
40994;BME280;26722;43.212;27.932;2023-04-08T00:05:16;55173.09;;;-146.72;53.64
40994;BME280;26722;43.212;27.932;2023-04-08T00:07:41;55149.88;;;-146.72;53.49
40994;BME280;26722;43.212;27.932;2023-04-08T00:10:07;55162.53;;;-146.72;53.50
40994;BME280;26722;43.212;27.932;2023-04-08T00:12:33;55177.31;;;-146.72;57.29
40994;BME280;26722;43.212;27.932;2023-04-08T00:14:58;55168.88;;;-146.72;58.19
40994;BME280;26722;43.212;27.932;2023-04-08T00:17:24;55192.09;;;-146.72;58.11
40994;BME280;26722;43.212;27.932;2023-04-08T00:19:50;55192.09;;;-146.72;58.38
40994;BME280;26722;43.212;27.932;2023-04-08T00:22:15;55175.22;;;-146.72;59.19
40994;BME280;26722;43.212;27.932;2023-04-08T00:24:41;55175.22;;;-146.72;60.08
40994;BME280;26722;43.212;27.932;2023-04-08T00:27:07;55162.53;;;-146.72;62.14
40994;BME280;26722;43.212;27.932;2023-04-08T00:29:32;55158.31;;;-146.72;63.21
40994;BME280;26722;43.212;27.932;2023-04-08T00:31:58;55170.97;;;-146.72;64.53
40994;BME280;26722;43.212;27.932;2023-04-08T00:34:23;55168.88;;;-146.72;64.53
40994;BME280;26722;43.212;27.932;2023-04-08T00:36:49;55154.09;;;-146.72;64.98
40994;BME280;26722;43.212;27.932;2023-04-08T00:39:15;55170.97;;;-146.72;64.74
40994;BME280;26722;43.212;27.932;2023-04-08T00:41:40;55196.31;;;-146.72;64.43
40994;BME280;26722;43.212;27.932;2023-04-08T00:44:06;55179.44;;;-146.72;63.23
40994;BME280;26722;43.212;27.932;2023-04-08T00:46:36;55183.66;;;-146.72;63.26
40994;BME280;26722;43.212;27.932;2023-04-08T00:49:03;55183.66;;;-146.72;62.94
40994;BME280;26722;43.212;27.932;2023-04-08T00:51:28;55164.66;;;-146.72;63.26
40994;BME280;26722;43.212;27.932;2023-04-08T00:53:55;55185.75;;;-146.72;63.38
40994;BME280;26722;43.212;27.932;2023-04-08T00:56:22;55200.53;;;-146.72;63.22
40994;BME280;26722;43.212;27.932;2023-04-08T00:58:49;55194.22;;;-146.72;63.58
40994;BME280;26722;43.212;27.932;2023-04-08T01:01:24;55177.31;;;-146.72;63.68
40994;BME280;26722;43.212;27.932;2023-04-08T01:04:01;55183.66;;;-146.72;63.84
40994;BME280;26722;43.212;27.932;2023-04-08T01:06:37;55190.00;;;-146.72;63.59
40994;BME280;26722;43.212;27.932;2023-04-08T01:09:07;55175.22;;;-146.72;64.03
40994;BME280;26722;43.212;27.932;2023-04-08T01:11:34;55187.88;;;-146.72;64.38
40994;BME280;26722;43.212;27.932;2023-04-08T01:14:04;55181.53;;;-146.72;64.29
40994;BME280;26722;43.212;27.932;2023-04-08T01:16:30;55190.00;;;-146.72;65.12
40994;BME280;26722;43.212;27.932;2023-04-08T01:18:56;55170.97;;;-146.72;65.24
40994;BME280;26722;43.212;27.932;2023-04-08T01:21:22;55177.31;;;-146.72;65.02
40994;BME280;26722;43.212;27.932;2023-04-08T01:26:30;55206.88;;;-146.72;64.74
40994;BME280;26722;43.212;27.932;2023-04-08T01:28:58;55187.88;;;-146.72;64.38
40994;BME280;26722;43.212;27.932;2023-04-08T01:31:24;55200.53;;;-146.72;64.22
40994;BME280;26722;43.212;27.932;2023-04-08T01:33:50;55173.09;;;-146.72;64.37
40994;BME280;26722;43.212;27.932;2023-04-08T01:36:16;55179.44;;;-146.72;64.62
40994;BME280;26722;43.212;27.932;2023-04-08T01:38:43;55187.88;;;-146.72;64.42
40994;BME280;26722;43.212;27.932;2023-04-08T01:41:10;55183.66;;;-146.72;63.57
40994;BME280;26722;43.212;27.932;2023-04-08T01:43:38;55177.31;;;-146.72;63.58
40994;BME280;26722;43.212;27.932;2023-04-08T01:46:06;55166.75;;;-146.72;63.14
40994;BME280;26722;43.212;27.932;2023-04-08T01:48:33;55190.00;;;-146.72;62.53
40994;BME280;26722;43.212;27.932;2023-04-08T01:51:00;55170.97;;;-146.72;62.41
40994;BME280;26722;43.212;27.932;2023-04-08T01:53:26;55156.22;;;-146.72;62.65
40994;BME280;26722;43.212;27.932;2023-04-08T01:55:56;55181.53;;;-146.72;62.57
40994;BME280;26722;43.212;27.932;2023-04-08T01:58:24;55175.22;;;-146.72;62.43
40994;BME280;26722;43.212;27.932;2023-04-08T02:00:53;55154.09;;;-146.72;62.52
40994;BME280;26722;43.212;27.932;2023-04-08T02:03:22;55166.75;;;-146.72;62.17
40994;BME280;26722;43.212;27.932;2023-04-08T02:05:48;55166.75;;;-146.72;61.73
40994;BME280;26722;43.212;27.932;2023-04-08T02:08:15;55175.22;;;-146.72;61.15
40994;BME280;26722;43.212;27.932;2023-04-08T02:10:40;55162.53;;;-146.72;61.36
40994;BME280;26722;43.212;27.932;2023-04-08T02:13:06;55154.09;;;-146.72;61.14
40994;BME280;26722;43.212;27.932;2023-04-08T02:15:33;55175.22;;;-146.72;60.34
40994;BME280;26722;43.212;27.932;2023-04-08T02:18:26;55170.97;;;-146.72;59.38
40994;BME280;26722;43.212;27.932;2023-04-08T02:21:05;55160.44;;;-146.72;59.05
40994;BME280;26722;43.212;27.932;2023-04-08T02:23:34;55141.44;;;-146.72;58.70
40994;BME280;26722;43.212;27.932;2023-04-08T02:26:03;55154.09;;;-146.72;58.84
40994;BME280;26722;43.212;27.932;2023-04-08T02:28:32;55162.53;;;-146.72;58.81
40994;BME280;26722;43.212;27.932;2023-04-08T02:30:59;55175.22;;;-146.72;59.30
40994;BME280;26722;43.212;27.932;2023-04-08T02:33:26;55154.09;;;-146.72;59.37
40994;BME280;26722;43.212;27.932;2023-04-08T02:35:53;55166.75;;;-146.72;59.39
40994;BME280;26722;43.212;27.932;2023-04-08T02:38:20;55166.75;;;-146.72;59.95
40994;BME280;26722;43.212;27.932;2023-04-08T02:40:48;55175.22;;;-146.72;60.67
40994;BME280;26722;43.212;27.932;2023-04-08T02:43:15;55175.22;;;-146.72;61.03
40994;BME280;26722;43.212;27.932;2023-04-08T02:45:41;55166.75;;;-146.72;61.47
40994;BME280;26722;43.212;27.932;2023-04-08T02:48:07;55160.44;;;-146.72;61.52
40994;BME280;26722;43.212;27.932;2023-04-08T02:50:32;55183.66;;;-146.72;61.64
40994;BME280;26722;43.212;27.932;2023-04-08T02:52:58;55173.09;;;-146.72;61.60
40994;BME280;26722;43.212;27.932;2023-04-08T02:55:24;55179.44;;;-146.72;61.90
40994;BME280;26722;43.212;27.932;2023-04-08T02:57:49;55179.44;;;-146.72;61.95
40994;BME280;26722;43.212;27.932;2023-04-08T03:00:15;55173.09;;;-146.72;62.32
40994;BME280;26722;43.212;27.932;2023-04-08T03:02:41;55192.09;;;-146.72;62.87
40994;BME280;26722;43.212;27.932;2023-04-08T03:05:07;55179.44;;;-146.72;62.83
40994;BME280;26722;43.212;27.932;2023-04-08T03:07:33;55170.97;;;-146.72;62.81
40994;BME280;26722;43.212;27.932;2023-04-08T03:09:59;55175.22;;;-146.72;62.73
40994;BME280;26722;43.212;27.932;2023-04-08T03:12:25;55177.31;;;-146.72;62.94
40994;BME280;26722;43.212;27.932;2023-04-08T03:14:53;55177.31;;;-146.72;62.81
40994;BME280;26722;43.212;27.932;2023-04-08T03:17:19;55209.00;;;-146.72;63.03
40994;BME280;26722;43.212;27.932;2023-04-08T03:19:45;55200.53;;;-146.72;62.68
40994;BME280;26722;43.212;27.932;2023-04-08T03:22:12;55198.44;;;-146.72;62.39
40994;BME280;26722;43.212;27.932;2023-04-08T03:24:37;55209.00;;;-146.72;63.09
40994;BME280;26722;43.212;27.932;2023-04-08T03:27:03;55204.75;;;-146.72;62.44
40994;BME280;26722;43.212;27.932;2023-04-08T03:29:28;55230.09;;;-146.72;61.49
40994;BME280;26722;43.212;27.932;2023-04-08T03:31:54;55200.53;;;-146.72;61.35
40994;BME280;26722;43.212;27.932;2023-04-08T03:34:19;55217.44;;;-146.72;60.09
40994;BME280;26722;43.212;27.932;2023-04-08T03:36:45;55187.88;;;-146.72;59.51
40994;BME280;26722;43.212;27.932;2023-04-08T03:39:10;55196.31;;;-146.72;59.39
40994;BME280;26722;43.212;27.932;2023-04-08T03:41:36;55164.66;;;-146.72;59.31
40994;BME280;26722;43.212;27.932;2023-04-08T03:44:01;55206.88;;;-146.72;58.82
40994;BME280;26722;43.212;27.932;2023-04-08T03:46:26;55217.44;;;-146.72;58.53
40994;BME280;26722;43.212;27.932;2023-04-08T03:48:52;55200.53;;;-146.72;58.74
40994;BME280;26722;43.212;27.932;2023-04-08T03:51:17;55213.22;;;-146.72;58.23
40994;BME280;26722;43.212;27.932;2023-04-08T03:53:43;55209.00;;;-146.72;58.20
40994;BME280;26722;43.212;27.932;2023-04-08T03:56:08;55179.44;;;-146.72;58.29
40994;BME280;26722;43.212;27.932;2023-04-08T03:58:34;55173.09;;;-146.72;57.81
40994;BME280;26722;43.212;27.932;2023-04-08T04:00:59;55183.66;;;-146.72;57.74
40994;BME280;26722;43.212;27.932;2023-04-08T04:03:25;55192.09;;;-146.72;57.52
40994;BME280;26722;43.212;27.932;2023-04-08T04:05:50;55190.00;;;-146.72;57.92
40994;BME280;26722;43.212;27.932;2023-04-08T04:08:16;55181.53;;;-146.72;57.97
40994;BME280;26722;43.212;27.932;2023-04-08T04:10:41;55156.22;;;-146.72;59.03
40994;BME280;26722;43.212;27.932;2023-04-08T04:13:07;55170.97;;;-146.72;59.40
40994;BME280;26722;43.212;27.932;2023-04-08T04:15:32;55162.53;;;-146.72;59.91
40994;BME280;26722;43.212;27.932;2023-04-08T04:17:57;55177.31;;;-146.72;59.73
40994;BME280;26722;43.212;27.932;2023-04-08T04:20:23;55141.44;;;-146.72;59.73
40994;BME280;26722;43.212;27.932;2023-04-08T04:22:50;55154.09;;;-146.72;58.79
40994;BME280;26722;43.212;27.932;2023-04-08T04:25:16;55156.22;;;-146.72;58.36
40994;BME280;26722;43.212;27.932;2023-04-08T04:27:41;55145.66;;;-146.72;57.74
40994;BME280;26722;43.212;27.932;2023-04-08T04:30:07;55132.97;;;-146.72;58.21
40994;BME280;26722;43.212;27.932;2023-04-08T04:32:33;55128.75;;;-146.72;57.99
40994;BME280;26722;43.212;27.932;2023-04-08T04:34:59;55141.44;;;-146.72;58.09
40994;BME280;26722;43.212;27.932;2023-04-08T04:37:25;55118.19;;;-146.72;58.30
40994;BME280;26722;43.212;27.932;2023-04-08T04:39:50;55132.97;;;-146.72;58.33
40994;BME280;26722;43.212;27.932;2023-04-08T04:42:16;55130.88;;;-146.72;58.56
40994;BME280;26722;43.212;27.932;2023-04-08T04:44:41;55132.97;;;-146.72;58.89
40994;BME280;26722;43.212;27.932;2023-04-08T04:47:07;55145.66;;;-146.72;59.14
40994;BME280;26722;43.212;27.932;2023-04-08T04:49:32;55156.22;;;-146.72;58.88
40994;BME280;26722;43.212;27.932;2023-04-08T04:51:58;55141.44;;;-146.72;58.81
40994;BME280;26722;43.212;27.932;2023-04-08T04:54:23;55118.19;;;-146.72;59.09
40994;BME280;26722;43.212;27.932;2023-04-08T04:56:48;55126.66;;;-146.72;59.11
40994;BME280;26722;43.212;27.932;2023-04-08T04:59:14;55111.88;;;-146.72;59.46
40994;BME280;26722;43.212;27.932;2023-04-08T05:01:40;55128.75;;;-146.72;59.40
40994;BME280;26722;43.212;27.932;2023-04-08T05:04:06;55118.19;;;-146.72;59.39
40994;BME280;26722;43.212;27.932;2023-04-08T05:06:32;55111.88;;;-146.72;58.86
40994;BME280;26722;43.212;27.932;2023-04-08T05:08:57;55124.53;;;-146.72;58.23
40994;BME280;26722;43.212;27.932;2023-04-08T05:11:23;55120.31;;;-146.72;58.00
40994;BME280;26722;43.212;27.932;2023-04-08T05:13:48;55097.09;;;-146.72;57.88
40994;BME280;26722;43.212;27.932;2023-04-08T05:16:14;55103.44;;;-146.72;57.17
40994;BME280;26722;43.212;27.932;2023-04-08T05:18:39;55094.97;;;-146.72;57.42
40994;BME280;26722;43.212;27.932;2023-04-08T05:21:05;55078.09;;;-146.72;58.36
40994;BME280;26722;43.212;27.932;2023-04-08T05:23:30;55103.44;;;-146.72;58.26
40994;BME280;26722;43.212;27.932;2023-04-08T05:25:56;55097.09;;;-146.72;58.27
40994;BME280;26722;43.212;27.932;2023-04-08T05:28:21;55105.53;;;-146.72;57.60
40994;BME280;26722;43.212;27.932;2023-04-08T05:30:51;55092.88;;;-146.72;58.19
40994;BME280;26722;43.212;27.932;2023-04-08T05:33:17;55105.53;;;-146.72;58.10
40994;BME280;26722;43.212;27.932;2023-04-08T05:35:43;55099.19;;;-146.72;58.04
40994;BME280;26722;43.212;27.932;2023-04-08T05:38:08;55105.53;;;-146.72;57.87
40994;BME280;26722;43.212;27.932;2023-04-08T05:40:34;55084.44;;;-146.72;57.78
40994;BME280;26722;43.212;27.932;2023-04-08T05:43:00;55099.19;;;-146.72;57.58
40994;BME280;26722;43.212;27.932;2023-04-08T05:45:26;55103.44;;;-146.72;57.53
40994;BME280;26722;43.212;27.932;2023-04-08T05:47:52;55088.66;;;-146.72;58.07
40994;BME280;26722;43.212;27.932;2023-04-08T05:50:17;55082.31;;;-146.72;58.05
40994;BME280;26722;43.212;27.932;2023-04-08T05:52:43;55090.75;;;-146.72;57.47
40994;BME280;26722;43.212;27.932;2023-04-08T05:55:09;55078.09;;;-146.72;57.33
40994;BME280;26722;43.212;27.932;2023-04-08T05:57:35;55092.88;;;-146.72;57.76
40994;BME280;26722;43.212;27.932;2023-04-08T06:00:01;55092.88;;;-146.72;58.64
40994;BME280;26722;43.212;27.932;2023-04-08T06:02:27;55109.75;;;-146.72;58.83
40994;BME280;26722;43.212;27.932;2023-04-08T06:04:52;55099.19;;;-146.72;59.54
40994;BME280;26722;43.212;27.932;2023-04-08T06:07:18;55084.44;;;-146.72;59.49
40994;BME280;26722;43.212;27.932;2023-04-08T06:09:43;55084.44;;;-146.72;59.96
40994;BME280;26722;43.212;27.932;2023-04-08T06:12:09;55073.88;;;-146.72;59.35
40994;BME280;26722;43.212;27.932;2023-04-08T06:14:35;55073.88;;;-146.72;58.66
40994;BME280;26722;43.212;27.932;2023-04-08T06:17:00;55090.75;;;-146.72;58.23
40994;BME280;26722;43.212;27.932;2023-04-08T06:19:26;55078.09;;;-146.72;57.94
40994;BME280;26722;43.212;27.932;2023-04-08T06:21:51;55090.75;;;-146.72;57.15
40994;BME280;26722;43.212;27.932;2023-04-08T06:24:17;55099.19;;;-146.72;57.36
40994;BME280;26722;43.212;27.932;2023-04-08T06:26:42;55071.75;;;-146.72;57.68
40994;BME280;26722;43.212;27.932;2023-04-08T06:29:07;55073.88;;;-146.72;58.29
40994;BME280;26722;43.212;27.932;2023-04-08T06:31:33;55113.97;;;-146.72;58.73
40994;BME280;26722;43.212;27.932;2023-04-08T06:33:58;55101.31;;;-146.72;58.93
40994;BME280;26722;43.212;27.932;2023-04-08T06:36:24;55078.09;;;-146.72;58.55
40994;BME280;26722;43.212;27.932;2023-04-08T06:38:49;55116.09;;;-146.72;58.86
40994;BME280;26722;43.212;27.932;2023-04-08T06:41:15;55082.31;;;-146.72;58.75
40994;BME280;26722;43.212;27.932;2023-04-08T06:43:40;55097.09;;;-146.72;59.01
40994;BME280;26722;43.212;27.932;2023-04-08T06:46:06;55099.19;;;-146.72;58.79
40994;BME280;26722;43.212;27.932;2023-04-08T06:48:31;55067.53;;;-146.72;58.79
40994;BME280;26722;43.212;27.932;2023-04-08T06:50:58;55094.97;;;-146.72;59.53
40994;BME280;26722;43.212;27.932;2023-04-08T06:53:25;55090.75;;;-146.72;59.40
40994;BME280;26722;43.212;27.932;2023-04-08T06:55:51;55090.75;;;-146.72;59.39
40994;BME280;26722;43.212;27.932;2023-04-08T06:58:17;55082.31;;;-146.72;58.78
40994;BME280;26722;43.212;27.932;2023-04-08T07:00:42;55086.53;;;-146.72;57.98
40994;BME280;26722;43.212;27.932;2023-04-08T07:03:08;55086.53;;;-146.72;58.59
40994;BME280;26722;43.212;27.932;2023-04-08T07:05:35;55086.53;;;-146.72;58.84
40994;BME280;26722;43.212;27.932;2023-04-08T07:08:01;55092.88;;;-146.72;58.49
40994;BME280;26722;43.212;27.932;2023-04-08T07:10:27;55073.88;;;-146.72;58.45
40994;BME280;26722;43.212;27.932;2023-04-08T07:12:53;55101.31;;;-146.72;58.58
40994;BME280;26722;43.212;27.932;2023-04-08T07:15:18;55092.88;;;-146.72;58.68
40994;BME280;26722;43.212;27.932;2023-04-08T07:17:44;55075.97;;;-146.72;59.50
40994;BME280;26722;43.212;27.932;2023-04-08T07:20:10;55080.19;;;-146.72;59.21
40994;BME280;26722;43.212;27.932;2023-04-08T07:22:36;55103.44;;;-146.72;59.44
40994;BME280;26722;43.212;27.932;2023-04-08T07:25:01;55078.09;;;-146.72;59.53
40994;BME280;26722;43.212;27.932;2023-04-08T07:27:27;55090.75;;;-146.72;58.66
40994;BME280;26722;43.212;27.932;2023-04-08T07:29:53;55099.19;;;-146.72;58.99
40994;BME280;26722;43.212;27.932;2023-04-08T07:32:19;55078.09;;;-146.72;59.40
40994;BME280;26722;43.212;27.932;2023-04-08T07:34:45;55073.88;;;-146.72;59.52
40994;BME280;26722;43.212;27.932;2023-04-08T07:37:10;55092.88;;;-146.72;58.81
40994;BME280;26722;43.212;27.932;2023-04-08T07:39:36;55103.44;;;-146.72;58.89
40994;BME280;26722;43.212;27.932;2023-04-08T07:42:01;55078.09;;;-146.72;59.53
40994;BME280;26722;43.212;27.932;2023-04-08T07:44:26;55090.75;;;-146.72;59.93
40994;BME280;26722;43.212;27.932;2023-04-08T07:46:52;55086.53;;;-146.72;59.60
40994;BME280;26722;43.212;27.932;2023-04-08T07:49:18;55084.44;;;-146.72;60.23
40994;BME280;26722;43.212;27.932;2023-04-08T07:51:43;55082.31;;;-146.72;60.52
40994;BME280;26722;43.212;27.932;2023-04-08T07:54:08;55092.88;;;-146.72;60.60
40994;BME280;26722;43.212;27.932;2023-04-08T07:56:41;55073.88;;;-146.72;59.96
40994;BME280;26722;43.212;27.932;2023-04-08T07:59:11;55080.19;;;-146.72;60.10
40994;BME280;26722;43.212;27.932;2023-04-08T08:01:37;55090.75;;;-146.72;60.01
40994;BME280;26722;43.212;27.932;2023-04-08T08:04:02;55099.19;;;-146.72;60.06
40994;BME280;26722;43.212;27.932;2023-04-08T08:06:28;55103.44;;;-146.72;59.92
40994;BME280;26722;43.212;27.932;2023-04-08T08:08:56;55088.66;;;-146.72;60.40
40994;BME280;26722;43.212;27.932;2023-04-08T08:11:21;55103.44;;;-146.72;60.17
40994;BME280;26722;43.212;27.932;2023-04-08T08:13:47;55073.88;;;-146.72;60.26
40994;BME280;26722;43.212;27.932;2023-04-08T08:16:13;55090.75;;;-146.72;60.03
40994;BME280;26722;43.212;27.932;2023-04-08T08:18:39;55078.09;;;-146.72;59.86
40994;BME280;26722;43.212;27.932;2023-04-08T08:21:06;55090.75;;;-146.72;59.78
40994;BME280;26722;43.212;27.932;2023-04-08T08:23:32;55080.19;;;-146.72;59.37
40994;BME280;26722;43.212;27.932;2023-04-08T08:26:02;55082.31;;;-146.72;59.39
40994;BME280;26722;43.212;27.932;2023-04-08T08:28:27;55080.19;;;-146.72;59.36
40994;BME280;26722;43.212;27.932;2023-04-08T08:30:53;55073.88;;;-146.72;59.80
40994;BME280;26722;43.212;27.932;2023-04-08T08:33:18;55088.66;;;-146.72;58.96
40994;BME280;26722;43.212;27.932;2023-04-08T08:35:44;55071.75;;;-146.72;59.02
40994;BME280;26722;43.212;27.932;2023-04-08T08:38:09;55050.66;;;-146.72;58.47
40994;BME280;26722;43.212;27.932;2023-04-08T08:40:35;55061.19;;;-146.72;57.88
40994;BME280;26722;43.212;27.932;2023-04-08T08:43:00;55065.41;;;-146.72;57.31
40994;BME280;26722;43.212;27.932;2023-04-08T08:45:26;55061.19;;;-146.72;57.60
40994;BME280;26722;43.212;27.932;2023-04-08T08:47:51;55069.66;;;-146.72;57.77
40994;BME280;26722;43.212;27.932;2023-04-08T08:50:18;55061.19;;;-146.72;57.10
40994;BME280;26722;43.212;27.932;2023-04-08T08:52:50;55067.53;;;-146.72;57.43
40994;BME280;26722;43.212;27.932;2023-04-08T08:55:18;55059.09;;;-146.72;57.39
40994;BME280;26722;43.212;27.932;2023-04-08T08:57:44;55063.31;;;-146.72;56.34
40994;BME280;26722;43.212;27.932;2023-04-08T09:00:11;55063.31;;;-146.72;56.78
40994;BME280;26722;43.212;27.932;2023-04-08T09:02:36;55052.75;;;-146.72;56.11
40994;BME280;26722;43.212;27.932;2023-04-08T09:05:03;55056.97;;;-146.72;55.62
40994;BME280;26722;43.212;27.932;2023-04-08T09:07:30;55040.09;;;-146.72;55.58
40994;BME280;26722;43.212;27.932;2023-04-08T09:09:59;55052.75;;;-146.72;54.67
40994;BME280;26722;43.212;27.932;2023-04-08T09:12:25;55063.31;;;-146.72;54.70
40994;BME280;26722;43.212;27.932;2023-04-08T09:15:06;55061.19;;;-146.72;54.79
40994;BME280;26722;43.212;27.932;2023-04-08T09:17:36;55044.31;;;-146.72;55.04
40994;BME280;26722;43.212;27.932;2023-04-08T09:20:12;55056.97;;;-146.72;53.60
40994;BME280;26722;43.212;27.932;2023-04-08T09:22:59;55056.97;;;-146.72;53.50
40994;BME280;26722;43.212;27.932;2023-04-08T09:25:26;55052.75;;;-146.72;53.34
40994;BME280;26722;43.212;27.932;2023-04-08T09:27:52;55042.19;;;-146.72;52.82
40994;BME280;26722;43.212;27.932;2023-04-08T09:30:22;55031.66;;;-146.72;52.68
40994;BME280;26722;43.212;27.932;2023-04-08T09:32:53;55040.09;;;-146.72;52.37
40994;BME280;26722;43.212;27.932;2023-04-08T09:35:19;55031.66;;;-146.72;51.21
40994;BME280;26722;43.212;27.932;2023-04-08T09:37:45;55029.53;;;-146.72;50.86
40994;BME280;26722;43.212;27.932;2023-04-08T09:40:11;55023.19;;;-146.72;51.03
40994;BME280;26722;43.212;27.932;2023-04-08T09:42:39;55023.19;;;-146.72;51.30
40994;BME280;26722;43.212;27.932;2023-04-08T09:45:08;55027.41;;;-146.72;51.89
40994;BME280;26722;43.212;27.932;2023-04-08T09:47:43;55023.19;;;-146.72;52.25
40994;BME280;26722;43.212;27.932;2023-04-08T09:50:12;55044.31;;;-146.72;51.67
40994;BME280;26722;43.212;27.932;2023-04-08T09:52:45;55027.41;;;-146.72;51.36
40994;BME280;26722;43.212;27.932;2023-04-08T09:55:16;55048.53;;;-146.72;52.13
40994;BME280;26722;43.212;27.932;2023-04-08T10:00:26;55031.66;;;-146.72;52.28
40994;BME280;26722;43.212;27.932;2023-04-08T10:05:36;55029.53;;;-146.72;52.49
40994;BME280;26722;43.212;27.932;2023-04-08T10:08:02;55029.53;;;-146.72;51.79
40994;BME280;26722;43.212;27.932;2023-04-08T10:10:29;55052.75;;;-146.72;52.06
40994;BME280;26722;43.212;27.932;2023-04-08T10:12:55;55044.31;;;-146.72;52.81
40994;BME280;26722;43.212;27.932;2023-04-08T10:15:25;55059.09;;;-146.72;53.69
40994;BME280;26722;43.212;27.932;2023-04-08T10:17:53;55056.97;;;-146.72;53.81
40994;BME280;26722;43.212;27.932;2023-04-08T10:25:29;55042.19;;;-146.72;55.47
40994;BME280;26722;43.212;27.932;2023-04-08T10:27:59;55063.31;;;-146.72;55.72
40994;BME280;26722;43.212;27.932;2023-04-08T10:32:56;55075.97;;;-146.72;56.94
40994;BME280;26722;43.212;27.932;2023-04-08T10:35:34;55084.44;;;-146.72;56.46
40994;BME280;26722;43.212;27.932;2023-04-08T10:38:00;55061.19;;;-146.72;57.21
40994;BME280;26722;43.212;27.932;2023-04-08T10:40:25;55065.41;;;-146.72;57.17
40994;BME280;26722;43.212;27.932;2023-04-08T10:42:55;55094.97;;;-146.72;57.48
40994;BME280;26722;43.212;27.932;2023-04-08T10:45:21;55084.44;;;-146.72;56.90
40994;BME280;26722;43.212;27.932;2023-04-08T10:47:46;55065.41;;;-146.72;56.49
40994;BME280;26722;43.212;27.932;2023-04-08T10:50:16;55078.09;;;-146.72;56.55
40994;BME280;26722;43.212;27.932;2023-04-08T10:53:00;55069.66;;;-146.72;56.75
40994;BME280;26722;43.212;27.932;2023-04-08T10:55:27;55069.66;;;-146.72;56.92
40994;BME280;26722;43.212;27.932;2023-04-08T10:57:53;55061.19;;;-146.72;56.10
40994;BME280;26722;43.212;27.932;2023-04-08T11:00:40;55067.53;;;-146.72;56.85
40994;BME280;26722;43.212;27.932;2023-04-08T11:03:07;55086.53;;;-146.72;57.30
40994;BME280;26722;43.212;27.932;2023-04-08T11:05:34;55080.19;;;-146.72;57.39
40994;BME280;26722;43.212;27.932;2023-04-08T11:08:01;55069.66;;;-146.72;57.13
40994;BME280;26722;43.212;27.932;2023-04-08T11:10:26;55056.97;;;-146.72;56.15
40994;BME280;26722;43.212;27.932;2023-04-08T11:12:56;55073.88;;;-146.72;56.65
40994;BME280;26722;43.212;27.932;2023-04-08T11:15:28;55069.66;;;-146.72;57.07
40994;BME280;26722;43.212;27.932;2023-04-08T11:17:54;55086.53;;;-146.72;57.41
40994;BME280;26722;43.212;27.932;2023-04-08T11:20:20;55086.53;;;-146.72;57.42
40994;BME280;26722;43.212;27.932;2023-04-08T11:22:47;55078.09;;;-146.72;58.39
40994;BME280;26722;43.212;27.932;2023-04-08T11:25:12;55061.19;;;-146.72;58.28
40994;BME280;26722;43.212;27.932;2023-04-08T11:27:38;55082.31;;;-146.72;57.72
40994;BME280;26722;43.212;27.932;2023-04-08T11:30:07;55090.75;;;-146.72;57.43
40994;BME280;26722;43.212;27.932;2023-04-08T11:32:34;55059.09;;;-146.72;56.59
40994;BME280;26722;43.212;27.932;2023-04-08T11:35:01;55075.97;;;-146.72;55.95
40994;BME280;26722;43.212;27.932;2023-04-08T11:37:39;55065.41;;;-146.72;54.77
40994;BME280;26722;43.212;27.932;2023-04-08T11:40:11;55063.31;;;-146.72;55.17
40994;BME280;26722;43.212;27.932;2023-04-08T11:42:38;55027.41;;;-146.72;54.23
40994;BME280;26722;43.212;27.932;2023-04-08T11:45:11;55061.19;;;-146.72;54.25
40994;BME280;26722;43.212;27.932;2023-04-08T11:47:37;55031.66;;;-146.72;53.28
40994;BME280;26722;43.212;27.932;2023-04-08T11:50:03;55040.09;;;-146.72;52.30
40994;BME280;26722;43.212;27.932;2023-04-08T11:52:52;55042.19;;;-146.72;53.47
40994;BME280;26722;43.212;27.932;2023-04-08T11:57:49;55052.75;;;-146.72;52.76
40994;BME280;26722;43.212;27.932;2023-04-08T12:00:15;55044.31;;;-146.72;52.05
40994;BME280;26722;43.212;27.932;2023-04-08T12:02:40;55078.09;;;-146.72;52.58
40994;BME280;26722;43.212;27.932;2023-04-08T12:05:06;55054.88;;;-146.72;53.56
40994;BME280;26722;43.212;27.932;2023-04-08T12:07:32;55061.19;;;-146.72;53.01
40994;BME280;26722;43.212;27.932;2023-04-08T12:09:57;55061.19;;;-146.72;53.91
40994;BME280;26722;43.212;27.932;2023-04-08T12:12:23;55056.97;;;-146.72;54.94
40994;BME280;26722;43.212;27.932;2023-04-08T12:14:48;55056.97;;;-146.72;54.84
40994;BME280;26722;43.212;27.932;2023-04-08T12:17:14;55073.88;;;-146.72;54.76
40994;BME280;26722;43.212;27.932;2023-04-08T12:19:39;55073.88;;;-146.72;54.96
40994;BME280;26722;43.212;27.932;2023-04-08T12:22:05;55082.31;;;-146.72;54.92
40994;BME280;26722;43.212;27.932;2023-04-08T12:24:31;55056.97;;;-146.72;55.26
40994;BME280;26722;43.212;27.932;2023-04-08T12:26:56;55090.75;;;-146.72;55.41
40994;BME280;26722;43.212;27.932;2023-04-08T12:29:21;55078.09;;;-146.72;56.71
40994;BME280;26722;43.212;27.932;2023-04-08T12:31:47;55086.53;;;-146.72;56.68
40994;BME280;26722;43.212;27.932;2023-04-08T12:34:12;55067.53;;;-146.72;55.82
40994;BME280;26722;43.212;27.932;2023-04-08T12:36:38;55056.97;;;-146.72;56.37
40994;BME280;26722;43.212;27.932;2023-04-08T12:39:03;55080.19;;;-146.72;56.58
40994;BME280;26722;43.212;27.932;2023-04-08T12:41:29;55080.19;;;-146.72;57.34
40994;BME280;26722;43.212;27.932;2023-04-08T12:43:54;55086.53;;;-146.72;57.68
40994;BME280;26722;43.212;27.932;2023-04-08T12:46:20;55097.09;;;-146.72;57.74